Time;durP1;ratioP1;P1;durP2;ratioP2;P2;SDS_P1;SDS_P2;PMS_P1;PMS_P2;Temp;Humidity;BMP_temperature;BMP_pressure;BME280_temperature;BME280_humidity;BME280_pressure;Samples;Min_cycle;Max_cycle;Signal;HPM_P1;HPM_P2
2023/01/22 00:00:07;;;;;;;14.80;10.83;;;;;;;0.78;81.97;96009.75;4972269;28;20193;-87
2023/01/22 00:02:35;;;;;;;13.80;10.53;;;;;;;0.80;81.94;96011.28;4956731;29;20236;-86
2023/01/22 00:05:02;;;;;;;13.43;10.20;;;;;;;0.81;81.46;96004.50;4968777;28;20223;-86
2023/01/22 00:07:30;;;;;;;13.47;10.20;;;;;;;0.81;81.79;96015.44;4976365;28;20208;-86
2023/01/22 00:09:56;;;;;;;14.17;10.33;;;;;;;0.86;81.60;96000.72;4956376;28;20604;-86
2023/01/22 00:12:26;;;;;;;12.80;10.00;;;;;;;0.86;81.46;96007.53;4956952;29;20216;-86
2023/01/22 00:14:52;;;;;;;14.70;10.07;;;;;;;0.85;81.35;96010.97;4967722;28;20224;-86
2023/01/22 00:17:19;;;;;;;14.80;10.53;;;;;;;0.83;81.49;96008.53;4957628;28;20620;-86
2023/01/22 00:19:45;;;;;;;13.40;10.23;;;;;;;0.84;81.40;96015.22;4966580;28;20200;-86
2023/01/22 00:22:11;;;;;;;13.13;10.33;;;;;;;0.84;81.83;96007.63;4975978;28;20231;-86
2023/01/22 00:24:39;;;;;;;13.43;10.00;;;;;;;0.72;82.22;96013.56;4958521;28;20217;-87
2023/01/22 00:27:06;;;;;;;13.63;10.27;;;;;;;0.76;82.07;96012.44;4956895;29;20201;-85
2023/01/22 00:29:33;;;;;;;14.27;10.97;;;;;;;0.78;81.72;96009.75;4974067;28;20200;-86
2023/01/22 00:32:00;;;;;;;13.83;10.03;;;;;;;0.83;81.65;96002.66;4976053;28;20230;-85
2023/01/22 00:34:26;;;;;;;12.90;10.57;;;;;;;0.84;81.52;96009.34;4960351;28;20221;-86
2023/01/22 00:36:53;;;;;;;14.30;10.37;;;;;;;0.87;81.38;96004.88;4958162;28;20283;-85
2023/01/22 00:39:21;;;;;;;13.50;10.80;;;;;;;0.89;81.40;96012.38;4958177;28;20886;-86
2023/01/22 00:41:49;;;;;;;13.57;10.10;;;;;;;0.91;81.40;96010.56;4973345;28;20213;-86
2023/01/22 00:44:15;;;;;;;14.70;10.73;;;;;;;0.89;81.21;96010.66;4980173;28;20258;-86
2023/01/22 00:46:42;;;;;;;13.57;10.00;;;;;;;0.87;80.97;96004.88;4963857;28;20290;-85
2023/01/22 00:49:08;;;;;;;15.63;10.90;;;;;;;0.88;81.23;96003.97;4961429;28;20825;-86
2023/01/22 00:51:35;;;;;;;15.23;10.23;;;;;;;0.85;81.14;96004.19;4968076;28;20193;-85
2023/01/22 00:54:02;;;;;;;14.77;10.70;;;;;;;0.87;81.24;95997.28;4972460;28;20274;-87
2023/01/22 00:56:29;;;;;;;15.20;10.80;;;;;;;0.91;81.23;96006.28;4979683;28;20196;-86
2023/01/22 00:58:59;;;;;;;13.53;10.17;;;;;;;0.91;81.15;96005.47;4967930;28;20287;-87
2023/01/22 01:01:25;;;;;;;12.93;10.07;;;;;;;0.95;81.00;96001.81;4960869;29;20256;-86
2023/01/22 01:03:52;;;;;;;14.63;10.83;;;;;;;0.98;81.05;96010.00;4970448;28;20220;-86
2023/01/22 01:06:21;;;;;;;14.73;11.50;;;;;;;0.98;80.83;96011.72;4959640;28;20197;-86
2023/01/22 01:08:48;;;;;;;14.13;10.27;;;;;;;0.95;81.29;96005.16;4961255;28;20576;-86
2023/01/22 01:11:17;;;;;;;12.67;9.93;;;;;;;0.97;81.42;96008.38;4959763;29;20569;-85
2023/01/22 01:13:46;;;;;;;15.10;10.83;;;;;;;0.98;81.37;96010.00;4959015;28;20312;-86
2023/01/22 01:16:16;;;;;;;13.03;10.17;;;;;;;0.98;81.26;96007.47;4967297;28;20225;-86
2023/01/22 01:18:43;;;;;;;13.87;10.50;;;;;;;1.03;80.74;96018.09;4977569;28;20192;-86
2023/01/22 01:21:10;;;;;;;14.27;10.77;;;;;;;1.02;80.80;96013.13;4980661;28;20211;-87
2023/01/22 01:23:37;;;;;;;14.33;10.37;;;;;;;1.01;80.73;96019.13;4961556;28;20303;-85
2023/01/22 01:26:07;;;;;;;13.73;10.53;;;;;;;1.01;80.75;96016.59;4971846;28;20211;-86
2023/01/22 01:28:35;;;;;;;16.47;10.87;;;;;;;0.95;81.28;96017.03;4980166;28;20212;-86
2023/01/22 01:31:03;;;;;;;14.17;10.73;;;;;;;0.99;80.99;96014.16;4968657;28;20221;-87
2023/01/22 01:33:31;;;;;;;14.03;10.67;;;;;;;1.00;80.92;96013.25;4966450;29;20236;-87
2023/01/22 01:36:01;;;;;;;13.60;10.50;;;;;;;0.99;81.37;96013.34;4976066;28;20207;-85
2023/01/22 01:38:28;;;;;;;15.37;11.03;;;;;;;0.99;80.68;96016.69;4975242;28;20219;-86
2023/01/22 01:40:55;;;;;;;14.33;10.30;;;;;;;1.00;80.86;96015.78;4964561;28;20208;-85
2023/01/22 01:43:22;;;;;;;13.03;10.23;;;;;;;1.01;80.86;96016.59;4954662;29;20233;-86
2023/01/22 01:45:49;;;;;;;11.87;9.67;;;;;;;0.99;81.43;96016.69;4973658;28;20196;-86
2023/01/22 01:48:24;;;;;;;14.97;9.97;;;;;;;1.01;81.33;96019.94;4974312;28;20204;-86
2023/01/22 01:50:57;;;;;;;13.53;10.63;;;;;;;1.01;80.93;96027.53;4961429;28;20584;-86
2023/01/22 01:53:25;;;;;;;16.60;10.90;;;;;;;1.02;81.10;96015.66;4954704;28;20229;-86
2023/01/22 01:55:53;;;;;;;13.43;10.30;;;;;;;1.00;81.19;96015.78;4972481;28;20591;-86
2023/01/22 01:58:21;;;;;;;14.33;11.50;;;;;;;1.01;81.42;96019.13;4965833;28;20276;-86
2023/01/22 02:00:53;;;;;;;15.63;11.27;;;;;;;0.99;81.52;96019.22;4954725;29;20201;-86
2023/01/22 02:03:21;;;;;;;14.30;10.83;;;;;;;1.01;81.56;96012.31;4956016;28;20224;-86
2023/01/22 02:05:48;;;;;;;15.50;11.27;;;;;;;0.97;81.56;96010.91;4955210;28;20193;-86
2023/01/22 02:08:16;;;;;;;14.63;11.00;;;;;;;1.00;81.51;96015.78;4956830;28;20208;-86
2023/01/22 02:10:43;;;;;;;15.77;11.70;;;;;;;0.98;82.09;96010.00;4955934;29;20742;-86
2023/01/22 02:13:15;;;;;;;17.03;11.50;;;;;;;0.93;82.75;96012.06;4971772;28;20196;-86
2023/01/22 02:15:42;;;;;;;15.57;11.30;;;;;;;0.93;83.04;96008.72;4967324;28;20629;-86
2023/01/22 02:18:08;;;;;;;14.17;10.83;;;;;;;0.96;82.80;96008.50;4956528;28;20603;-86
2023/01/22 02:20:38;;;;;;;15.37;10.70;;;;;;;0.96;82.95;96006.75;4954671;29;20614;-86
2023/01/22 02:23:05;;;;;;;14.53;10.73;;;;;;;0.99;83.09;96015.88;4957857;28;20226;-86
2023/01/22 02:25:33;;;;;;;16.77;11.30;;;;;;;1.04;82.44;96016.38;4974068;28;20282;-86
2023/01/22 02:28:00;;;;;;;16.13;11.43;;;;;;;1.05;82.64;96015.47;4972942;28;20197;-85
2023/01/22 02:30:26;;;;;;;15.07;10.63;;;;;;;1.03;82.55;96009.69;4974708;28;20204;-85
2023/01/22 02:32:53;;;;;;;15.47;11.33;;;;;;;1.02;82.67;96008.06;4971710;28;20200;-86
2023/01/22 02:35:19;;;;;;;16.83;11.53;;;;;;;1.06;82.17;96011.19;4954335;28;20220;-84
2023/01/22 02:37:47;;;;;;;15.87;10.80;;;;;;;1.04;82.11;96007.03;4955671;28;20595;-86
2023/01/22 02:40:14;;;;;;;14.47;11.03;;;;;;;1.05;82.19;96015.47;4974594;28;20211;-86
2023/01/22 02:42:40;;;;;;;18.57;12.03;;;;;;;1.00;82.63;96012.44;4965139;28;20220;-85
2023/01/22 02:45:08;;;;;;;16.80;11.43;;;;;;;0.98;82.40;96009.19;4957820;28;20227;-86
2023/01/22 02:47:34;;;;;;;16.40;11.53;;;;;;;1.00;82.50;96012.44;4975296;28;20258;-86
2023/01/22 02:50:01;;;;;;;15.57;11.50;;;;;;;0.96;83.17;96011.81;4974097;28;20208;-86
2023/01/22 02:52:27;;;;;;;16.40;11.90;;;;;;;0.98;82.57;96016.78;4955201;28;20495;-86
2023/01/22 02:54:55;;;;;;;15.20;11.70;;;;;;;0.97;83.02;96013.44;4958011;28;20753;-87
2023/01/22 02:57:22;;;;;;;14.37;11.03;;;;;;;1.02;82.68;96013.13;4964705;28;20220;-87
2023/01/22 02:59:48;;;;;;;19.10;12.53;;;;;;;1.04;82.71;96009.56;4945516;28;20699;-86
2023/01/22 03:02:15;;;;;;;16.53;11.70;;;;;;;1.04;82.60;96012.13;4956536;28;20204;-86
2023/01/22 03:04:41;;;;;;;14.90;11.73;;;;;;;1.06;82.19;96014.53;4955403;28;20229;-86
2023/01/22 03:07:07;;;;;;;16.87;12.40;;;;;;;1.06;82.65;96006.13;4974222;28;20227;-86
2023/01/22 03:09:34;;;;;;;14.60;11.77;;;;;;;1.06;82.47;96004.41;4958965;28;20785;-86
2023/01/22 03:12:04;;;;;;;16.83;12.13;;;;;;;0.94;82.60;96012.88;4955621;29;20208;-86
2023/01/22 03:22:45;;;;;;;17.27;12.30;;;;;;;0.79;84.66;96022.34;4974371;28;20922;-86
2023/01/22 03:25:12;;;;;;;16.83;11.97;;;;;;;0.86;84.13;96015.13;4956715;28;20231;-86
2023/01/22 03:28:07;;;;;;;16.00;11.83;;;;;;;0.89;84.09;96009.84;4955248;29;20209;-86
2023/01/22 03:30:26;;;;;;;16.10;11.40;;;;;;;0.92;83.65;96012.16;4935241;29;20289;-86
2023/01/22 03:32:52;;;;;;;17.33;12.37;;;;;;;0.97;83.30;96013.44;4936866;29;20206;-86
2023/01/22 03:35:21;;;;;;;17.57;12.23;;;;;;;0.97;83.18;96017.72;4955924;28;20221;-87
2023/01/22 03:37:50;;;;;;;18.27;12.37;;;;;;;0.98;83.21;96017.59;4955335;29;20272;-86
2023/01/22 03:40:17;;;;;;;16.10;12.07;;;;;;;0.98;83.17;96017.59;4973696;28;20204;-87
2023/01/22 03:42:45;;;;;;;16.37;12.57;;;;;;;1.03;83.15;96015.56;4965459;28;20197;-86
2023/01/22 03:45:14;;;;;;;16.90;12.30;;;;;;;1.00;82.79;96020.03;4960222;28;20228;-86
2023/01/22 03:47:40;;;;;;;17.50;11.90;;;;;;;1.00;82.65;96025.09;4974233;28;20211;-85
2023/01/22 03:50:10;;;;;;;15.47;12.10;;;;;;;1.04;82.42;96029.06;4970018;28;20201;-86
2023/01/22 03:52:37;;;;;;;15.03;12.27;;;;;;;0.91;83.76;96033.38;4954710;29;20201;-86
2023/01/22 03:55:04;;;;;;;16.90;11.67;;;;;;;0.89;83.83;96041.06;4957015;28;20245;-86
2023/01/22 04:00:28;;;;;;;17.03;12.50;;;;;;;0.87;83.61;96039.56;4954126;28;20207;-85
2023/01/22 04:02:54;;;;;;;18.40;12.90;;;;;;;0.89;83.83;96037.72;4954123;29;20260;-86
2023/01/22 04:05:21;;;;;;;18.50;12.30;;;;;;;0.88;83.85;96036.09;4955122;28;20291;-86
2023/01/22 04:07:49;;;;;;;17.70;12.40;;;;;;;0.94;84.01;96035.69;4957365;28;20201;-86
2023/01/22 04:10:16;;;;;;;17.53;12.53;;;;;;;0.98;83.76;96042.94;4974160;28;20607;-86
2023/01/22 04:12:43;;;;;;;17.20;12.27;;;;;;;0.96;83.68;96038.94;4971917;28;20712;-86
2023/01/22 04:15:11;;;;;;;16.00;12.13;;;;;;;0.89;83.89;96043.59;4940217;28;20348;-86
2023/01/22 04:17:38;;;;;;;17.53;12.50;;;;;;;0.94;83.74;96045.84;4956447;28;20614;-86
2023/01/22 04:20:05;;;;;;;18.00;13.00;;;;;;;0.89;83.74;96042.78;4974176;28;20203;-86
2023/01/22 04:22:32;;;;;;;17.87;12.27;;;;;;;0.98;83.98;96042.16;4962848;28;20204;-86
2023/01/22 04:24:58;;;;;;;15.53;12.03;;;;;;;0.99;83.68;96047.09;4955537;28;20228;-86
2023/01/22 04:27:25;;;;;;;15.43;12.03;;;;;;;1.01;83.21;96047.81;4973375;28;20207;-86
2023/01/22 04:29:54;;;;;;;16.37;12.33;;;;;;;1.08;82.78;96057.53;4973401;28;20426;-85
2023/01/22 04:32:24;;;;;;;16.47;12.33;;;;;;;1.08;82.74;96055.81;4954338;28;20205;-87
2023/01/22 04:34:50;;;;;;;17.30;12.87;;;;;;;1.11;83.15;96052.25;4954772;28;20243;-87
2023/01/22 04:37:16;;;;;;;17.23;12.50;;;;;;;1.12;82.54;96048.81;4973670;28;20208;-86
2023/01/22 04:39:43;;;;;;;15.90;11.80;;;;;;;1.11;82.89;96058.13;4973572;28;20204;-86
2023/01/22 04:42:10;;;;;;;17.37;12.83;;;;;;;1.09;82.73;96054.91;4955187;28;20205;-86
2023/01/22 04:44:37;;;;;;;18.70;12.40;;;;;;;1.06;83.13;96056.84;4953962;29;20256;-86
2023/01/22 04:47:03;;;;;;;16.93;12.30;;;;;;;1.01;83.16;96059.69;4971141;28;20982;-85
2023/01/22 04:49:31;;;;;;;17.10;13.27;;;;;;;0.94;83.88;96069.47;4964744;28;20209;-85
2023/01/22 04:51:57;;;;;;;18.73;13.07;;;;;;;0.91;84.28;96051.91;4953117;29;20204;-85
2023/01/22 04:54:24;;;;;;;15.87;12.40;;;;;;;0.98;84.03;96059.88;4970616;28;20251;-86
2023/01/22 04:56:51;;;;;;;16.37;12.60;;;;;;;0.95;83.90;96060.94;4956302;28;20659;-86
2023/01/22 04:59:18;;;;;;;17.73;12.13;;;;;;;0.98;84.11;96068.31;4953749;29;20210;-85
2023/01/22 05:01:44;;;;;;;16.33;12.43;;;;;;;0.98;83.73;96063.22;4953929;28;20212;-86
2023/01/22 05:04:10;;;;;;;16.97;12.20;;;;;;;1.01;83.71;96060.50;4953329;28;20223;-86
2023/01/22 05:06:38;;;;;;;16.00;12.37;;;;;;;1.00;83.91;96068.19;4954600;28;20208;-86
2023/01/22 05:09:05;;;;;;;16.87;12.50;;;;;;;1.03;83.65;96070.53;4954577;29;20209;-85
2023/01/22 05:11:31;;;;;;;16.43;12.57;;;;;;;1.06;83.37;96072.84;4954238;28;20200;-87
2023/01/22 05:13:58;;;;;;;17.97;13.10;;;;;;;1.10;83.44;96068.38;4953881;29;20221;-86
2023/01/22 05:16:24;;;;;;;15.60;12.10;;;;;;;1.08;83.23;96076.09;4965930;28;20212;-87
2023/01/22 05:18:51;;;;;;;18.07;12.97;;;;;;;1.06;83.13;96072.03;4972876;28;20200;-86
2023/01/22 05:21:17;;;;;;;15.90;12.47;;;;;;;0.99;83.65;96077.53;4961367;28;20205;-86
2023/01/22 05:23:45;;;;;;;17.23;12.50;;;;;;;1.01;83.83;96074.88;4953437;29;20235;-87
2023/01/22 05:26:12;;;;;;;18.37;13.07;;;;;;;1.01;83.42;96083.31;4965601;28;20207;-86
2023/01/22 05:28:38;;;;;;;14.37;11.33;;;;;;;0.96;84.02;96080.28;4976261;28;20204;-86
2023/01/22 05:31:05;;;;;;;17.57;12.63;;;;;;;0.97;83.80;96079.34;4957219;28;20212;-86
2023/01/22 05:33:32;;;;;;;19.33;12.60;;;;;;;0.97;83.77;96081.09;4957504;29;20228;-86
2023/01/22 05:35:59;;;;;;;17.37;11.90;;;;;;;0.99;83.74;96080.06;4974033;28;20211;-86
2023/01/22 05:38:26;;;;;;;16.77;12.53;;;;;;;1.01;83.94;96087.56;4976228;28;20210;-85
2023/01/22 05:40:54;;;;;;;18.00;12.90;;;;;;;1.08;83.57;96087.97;4959310;28;20732;-85
2023/01/22 05:43:21;;;;;;;16.50;12.10;;;;;;;1.11;82.84;96095.38;4964187;28;20203;-86
2023/01/22 05:45:47;;;;;;;17.13;12.17;;;;;;;1.06;82.91;96085.53;4971199;28;20212;-85
2023/01/22 05:48:14;;;;;;;16.80;12.67;;;;;;;1.09;82.79;96087.88;4956747;29;20204;-86
2023/01/22 05:50:41;;;;;;;15.63;12.27;;;;;;;1.09;83.04;96095.47;4956566;28;20580;-84
2023/01/22 05:53:08;;;;;;;18.63;12.30;;;;;;;1.04;83.13;96090.72;4956106;28;20586;-86
2023/01/22 05:55:35;;;;;;;17.17;12.67;;;;;;;1.08;82.88;96093.84;4957823;28;20197;-86
2023/01/22 05:58:02;;;;;;;18.73;13.50;;;;;;;1.06;82.40;96098.22;4956161;29;20204;-86
2023/01/22 06:00:29;;;;;;;17.40;12.07;;;;;;;1.10;82.43;96109.78;4970250;28;20282;-87
2023/01/22 06:02:56;;;;;;;19.20;13.17;;;;;;;1.10;82.73;96107.22;4956442;29;20209;-86
2023/01/22 06:05:23;;;;;;;16.70;13.07;;;;;;;1.12;82.56;96110.47;4973472;28;20614;-86
2023/01/22 06:07:49;;;;;;;15.23;12.17;;;;;;;1.10;82.70;96106.41;4975352;28;20204;-86
2023/01/22 06:10:16;;;;;;;16.87;12.27;;;;;;;1.08;82.58;96109.06;4959704;28;20209;-86
2023/01/22 06:12:42;;;;;;;16.47;12.63;;;;;;;1.09;82.75;96115.75;4956566;29;20205;-85
2023/01/22 06:15:11;;;;;;;16.07;12.33;;;;;;;1.13;82.51;96113.81;4970633;28;20216;-87
2023/01/22 06:17:38;;;;;;;17.83;12.87;;;;;;;1.13;82.67;96118.91;4976367;28;20203;-86
2023/01/22 06:20:05;;;;;;;18.20;12.97;;;;;;;1.16;82.94;96116.13;4962594;28;20205;-86
2023/01/22 06:22:32;;;;;;;16.83;12.20;;;;;;;1.18;82.64;96119.38;4960696;28;20203;-86
2023/01/22 06:24:59;;;;;;;16.97;12.03;;;;;;;1.17;82.46;96110.94;4976759;28;20240;-87
2023/01/22 06:27:27;;;;;;;17.27;8.53;;;;;;;1.94;100.00;96116.50;4954052;28;20204;-87
2023/01/22 06:30:00;;;;;;;14.83;10.73;;;;;;;2.63;100.00;96123.22;4952667;28;20201;-88
2023/01/22 06:32:50;;;;;;;15.77;11.17;;;;;;;3.12;100.00;96115.22;4953611;28;20203;-89
2023/01/22 06:35:16;;;;;;;15.07;10.80;;;;;;;3.48;91.77;96115.84;4960425;28;20871;-86
2023/01/22 06:37:43;;;;;;;12.80;10.83;;;;;;;3.28;78.83;96119.13;4956009;28;20217;-86
2023/01/22 06:40:12;;;;;;;13.77;11.47;;;;;;;2.88;76.51;96122.22;4957053;29;20201;-86
2023/01/22 06:42:38;;;;;;;14.00;11.07;;;;;;;2.58;77.69;96130.38;4955365;29;20209;-86
2023/01/22 06:45:06;;;;;;;16.07;10.93;;;;;;;2.24;77.89;96134.59;4935657;29;20244;-86
2023/01/22 06:47:33;;;;;;;15.90;11.30;;;;;;;2.06;79.17;96125.78;4956400;29;20201;-86
2023/01/22 06:50:00;;;;;;;14.27;10.60;;;;;;;1.85;78.72;96135.75;4956560;28;20193;-87
2023/01/22 06:52:26;;;;;;;15.07;10.70;;;;;;;1.78;79.61;96138.81;4957538;29;20201;-86
2023/01/22 06:54:53;;;;;;;12.90;10.70;;;;;;;1.69;79.58;96138.56;4958002;28;20263;-86
2023/01/22 06:57:19;;;;;;;14.13;10.53;;;;;;;1.66;80.27;96143.06;4956243;28;20881;-87
2023/01/22 06:59:46;;;;;;;13.87;10.70;;;;;;;1.51;81.29;96139.06;4955808;28;20211;-87
2023/01/22 07:02:19;;;;;;;15.33;10.93;;;;;;;1.47;81.44;96141.00;4956190;28;20232;-86
2023/01/22 07:04:47;;;;;;;14.47;10.60;;;;;;;1.43;80.76;96149.72;4954436;28;20228;-87
2023/01/22 07:07:13;;;;;;;13.00;10.30;;;;;;;1.43;80.87;96146.38;4953580;29;20568;-86
2023/01/22 07:09:40;;;;;;;12.97;10.23;;;;;;;1.39;80.50;96161.00;4952618;29;20208;-88
2023/01/22 07:12:07;;;;;;;12.17;10.10;;;;;;;1.35;80.80;96154.50;4952666;28;20216;-88
2023/01/22 07:14:34;;;;;;;13.77;10.00;;;;;;;1.31;80.42;96153.94;4963478;28;20216;-87
2023/01/22 07:17:00;;;;;;;12.67;9.83;;;;;;;1.29;81.13;96158.31;4958900;28;20197;-87
2023/01/22 07:19:26;;;;;;;11.83;9.43;;;;;;;1.32;80.44;96160.63;4961437;28;20689;-88
2023/01/22 07:21:54;;;;;;;13.63;10.53;;;;;;;1.29;80.99;96165.09;4962525;28;20204;-87
2023/01/22 07:24:21;;;;;;;13.87;10.33;;;;;;;1.30;80.91;96166.72;4964008;28;20224;-87
2023/01/22 07:26:48;;;;;;;14.57;10.10;;;;;;;1.33;80.90;96169.06;4963340;28;20251;-87
2023/01/22 07:29:14;;;;;;;12.97;10.17;;;;;;;1.30;80.92;96164.19;4962957;28;20211;-88
2023/01/22 07:31:41;;;;;;;14.37;10.63;;;;;;;1.18;81.46;96165.81;4965513;28;20196;-87
2023/01/22 07:34:07;;;;;;;14.23;10.63;;;;;;;1.18;81.51;96168.34;4963731;28;20221;-88
2023/01/22 07:36:36;;;;;;;13.33;10.53;;;;;;;1.20;81.41;96170.78;4961888;28;20207;-88
2023/01/22 07:39:05;;;;;;;13.40;9.97;;;;;;;1.17;81.80;96166.75;4961663;28;20303;-87
2023/01/22 07:41:31;;;;;;;12.93;10.10;;;;;;;1.08;82.19;96164.84;4961693;28;20224;-87
2023/01/22 07:43:59;;;;;;;13.67;10.60;;;;;;;0.96;82.95;96169.00;4961327;28;20221;-88
2023/01/22 07:46:26;;;;;;;14.70;10.80;;;;;;;0.95;83.03;96172.47;4960424;28;20216;-86
2023/01/22 07:48:52;;;;;;;14.33;10.70;;;;;;;1.03;82.67;96166.88;4957256;28;20264;-88
2023/01/22 07:51:19;;;;;;;13.53;10.40;;;;;;;1.13;83.40;96167.06;4955223;29;20197;-87
2023/01/22 07:53:46;;;;;;;14.40;10.67;;;;;;;1.22;81.98;96166.44;4956195;28;20225;-87
2023/01/22 07:56:17;;;;;;;13.47;10.10;;;;;;;1.22;82.09;96168.97;4958793;28;20296;-87
2023/01/22 07:58:44;;;;;;;15.60;10.60;;;;;;;1.23;81.71;96173.94;4958012;28;20247;-87
2023/01/22 08:01:12;;;;;;;13.43;9.90;;;;;;;1.79;100.00;96173.44;4959883;28;20204;-88
2023/01/22 08:03:41;;;;;;;14.90;8.97;;;;;;;2.45;100.00;96175.44;4960246;28;20343;-89
2023/01/22 08:06:09;;;;;;;12.00;9.47;;;;;;;2.85;89.78;96165.66;4958705;28;20216;-85
2023/01/22 08:08:35;;;;;;;12.53;9.73;;;;;;;2.77;78.51;96171.31;4968357;28;20243;-86
2023/01/22 08:11:02;;;;;;;12.07;9.73;;;;;;;2.60;76.89;96174.28;4963993;28;20233;-86
2023/01/22 08:13:30;;;;;;;14.57;10.33;;;;;;;2.36;76.86;96176.91;4972102;28;20574;-87
2023/01/22 08:15:56;;;;;;;12.40;10.63;;;;;;;2.22;76.87;96176.28;4956126;29;20297;-87
2023/01/22 08:18:23;;;;;;;13.77;10.73;;;;;;;1.97;76.95;96185.66;4959715;28;20193;-87
2023/01/22 08:20:50;;;;;;;12.13;9.73;;;;;;;1.73;77.83;96190.72;4976595;28;20199;-87
2023/01/22 08:23:17;;;;;;;13.37;10.07;;;;;;;1.59;78.06;96187.53;4977131;28;20208;-87
2023/01/22 08:25:43;;;;;;;12.53;10.17;;;;;;;1.51;79.14;96189.81;4961371;29;20381;-86
2023/01/22 08:28:09;;;;;;;13.33;10.20;;;;;;;1.43;84.59;96187.78;4965174;28;20248;-86
2023/01/22 08:30:40;;;;;;;15.30;10.83;;;;;;;1.46;80.82;96189.31;4978020;28;20212;-87
2023/01/22 08:33:07;;;;;;;43.00;31.13;;;;;;;1.41;80.67;96197.22;4979140;28;20214;-86
2023/01/22 08:35:33;;;;;;;22.57;16.60;;;;;;;1.44;80.06;96196.22;4963881;28;20225;-87
2023/01/22 08:38:01;;;;;;;17.00;12.50;;;;;;;1.37;79.92;96195.81;4958464;28;20686;-86
2023/01/22 08:40:27;;;;;;;14.80;11.57;;;;;;;1.43;80.70;96194.59;4970938;28;20200;-87
2023/01/22 08:42:56;;;;;;;14.23;11.43;;;;;;;1.49;80.01;96204.31;4965335;28;20204;-86
2023/01/22 08:45:23;;;;;;;13.27;10.97;;;;;;;1.56;78.98;96206.31;4959433;28;20694;-86
2023/01/22 08:47:58;;;;;;;15.50;11.07;;;;;;;1.59;79.23;96205.28;4961912;28;20289;-86
2023/01/22 08:50:25;;;;;;;13.80;11.20;;;;;;;1.62;79.13;96200.00;4957979;28;20205;-87
2023/01/22 08:52:51;;;;;;;14.63;11.53;;;;;;;1.52;78.72;96206.66;4976452;28;20620;-86
2023/01/22 08:55:18;;;;;;;14.80;11.73;;;;;;;1.54;78.68;96214.97;4977969;28;20224;-87
2023/01/22 08:57:44;;;;;;;15.17;11.57;;;;;;;1.54;78.52;96212.44;4958020;28;20570;-86
2023/01/22 09:00:12;;;;;;;14.63;11.10;;;;;;;1.63;78.35;96217.69;4960175;28;20200;-86
2023/01/22 09:02:38;;;;;;;16.53;11.80;;;;;;;1.67;78.19;96221.63;4979974;28;20683;-86
2023/01/22 09:05:07;;;;;;;54.83;36.27;;;;;;;1.69;78.30;96227.41;4979498;28;20767;-86
2023/01/22 09:07:33;;;;;;;16.03;12.77;;;;;;;1.58;78.53;96229.06;4961472;28;20197;-86
2023/01/22 09:10:06;;;;;;;20.33;15.23;;;;;;;1.64;78.62;96236.25;4960787;28;20205;-86
2023/01/22 09:12:36;;;;;;;17.00;12.67;;;;;;;1.79;78.60;96235.19;4979714;28;20204;-86
2023/01/22 09:15:03;;;;;;;15.73;12.47;;;;;;;1.89;77.68;96237.91;4979143;28;20224;-86
2023/01/22 09:17:29;;;;;;;16.13;13.03;;;;;;;1.92;76.99;96241.06;4959950;29;20212;-89
2023/01/22 09:19:56;;;;;;;18.33;13.50;;;;;;;1.91;77.10;96244.50;4978732;28;20571;-87
2023/01/22 09:22:24;;;;;;;18.40;13.37;;;;;;;1.84;77.42;96248.38;4979469;28;20201;-86
2023/01/22 09:24:51;;;;;;;17.37;13.13;;;;;;;1.71;77.65;96260.31;4962765;28;20263;-87
2023/01/22 09:27:17;;;;;;;19.90;13.90;;;;;;;1.69;78.18;96259.59;4959345;29;20216;-85
2023/01/22 09:29:44;;;;;;;17.67;13.47;;;;;;;1.76;77.30;96268.41;4974988;28;20200;-86
2023/01/22 09:32:13;;;;;;;18.43;13.27;;;;;;;1.89;77.66;96268.38;4963589;28;20205;-87
2023/01/22 09:34:39;;;;;;;17.60;13.70;;;;;;;2.04;77.32;96268.09;4908479;28;20240;-86
2023/01/22 09:37:12;;;;;;;22.87;14.23;;;;;;;2.15;76.38;96281.78;4952051;28;20212;-86
2023/01/22 09:39:40;;;;;;;17.13;12.43;;;;;;;2.19;76.07;96281.47;4968650;28;20228;-86
2023/01/22 09:42:12;;;;;;;16.77;13.07;;;;;;;2.26;75.72;96275.03;4977292;28;20219;-86
2023/01/22 09:44:42;;;;;;;15.40;13.17;;;;;;;2.34;75.78;96277.00;4969471;28;20228;-86
2023/01/22 09:47:13;;;;;;;16.07;12.13;;;;;;;2.32;75.25;96278.84;4957096;28;20296;-86
2023/01/22 09:52:48;;;;;;;17.00;12.57;;;;;;;2.55;75.00;96278.03;4955364;28;20770;-87
2023/01/22 09:55:20;;;;;;;18.03;12.90;;;;;;;2.77;74.30;96284.91;4958428;28;20221;-86
2023/01/22 09:57:52;;;;;;;17.83;13.13;;;;;;;2.81;73.35;96281.25;4968331;28;20263;-86
2023/01/22 10:00:23;;;;;;;14.50;12.03;;;;;;;2.79;72.23;96278.00;4973636;28;20283;-86
2023/01/22 10:02:54;;;;;;;15.80;12.10;;;;;;;2.78;72.76;96272.09;4968170;28;20201;-86
2023/01/22 10:05:29;;;;;;;35.57;25.83;;;;;;;2.54;73.26;96280.69;4967263;28;20234;-86
2023/01/22 10:08:09;;;;;;;35.63;24.40;;;;;;;2.57;74.28;96283.00;4958167;29;20577;-86
2023/01/22 10:10:37;;;;;;;17.43;12.53;;;;;;;2.43;73.57;96279.72;4961071;28;20687;-86
2023/01/22 10:13:12;;;;;;;17.03;12.37;;;;;;;2.46;73.69;96273.63;4974994;28;20689;-86
2023/01/22 10:15:39;;;;;;;17.40;12.43;;;;;;;2.38;74.50;96275.88;4975794;28;20227;-87
2023/01/22 10:18:16;;;;;;;14.97;12.50;;;;;;;2.40;74.93;96272.31;4967033;28;20215;-86
2023/01/22 10:20:43;;;;;;;15.50;12.50;;;;;;;2.50;75.10;96279.28;4961533;28;20203;-86
2023/01/22 10:23:17;;;;;;;16.87;12.47;;;;;;;2.39;74.68;96278.31;4976787;28;20196;-85
2023/01/22 10:25:46;;;;;;;17.30;12.23;;;;;;;2.46;74.65;96278.69;4977311;28;20710;-86
2023/01/22 10:28:14;;;;;;;15.33;12.27;;;;;;;2.53;74.07;96279.06;4962547;28;20208;-85
2023/01/22 10:30:45;;;;;;;19.47;11.93;;;;;;;2.55;73.81;96280.56;4967415;28;20204;-85
2023/01/22 10:33:21;;;;;;;16.90;13.03;;;;;;;2.28;74.44;96282.56;4959364;29;20286;-86
2023/01/22 10:35:50;;;;;;;15.90;11.70;;;;;;;2.28;75.02;96282.56;4976676;28;20200;-86
2023/01/22 10:38:22;;;;;;;15.37;12.47;;;;;;;2.10;74.58;96282.13;4977875;28;20208;-86
2023/01/22 10:40:55;;;;;;;15.87;12.27;;;;;;;2.13;75.10;96289.50;4977352;28;20196;-86
2023/01/22 10:43:24;;;;;;;15.73;12.33;;;;;;;2.23;75.96;96292.22;4972367;28;20224;-86
2023/01/22 10:45:52;;;;;;;16.40;12.13;;;;;;;2.18;76.31;96290.00;4957312;29;21102;-86
2023/01/22 10:48:19;;;;;;;15.80;11.80;;;;;;;2.18;75.14;96282.38;4960705;28;20665;-85
2023/01/22 10:51:01;;;;;;;14.57;10.83;;;;;;;2.19;75.38;96286.53;4961092;28;20851;-86
2023/01/22 10:53:40;;;;;;;15.87;12.20;;;;;;;2.20;75.54;96283.09;4976505;28;20580;-86
2023/01/22 10:56:11;;;;;;;15.07;11.93;;;;;;;2.27;75.69;96283.47;4976022;28;20283;-86
2023/01/22 10:58:46;;;;;;;13.27;10.87;;;;;;;2.31;75.45;96287.41;4962813;29;20208;-86
2023/01/22 11:01:26;;;;;;;17.93;13.67;;;;;;;2.27;75.17;96288.56;4967653;28;20195;-86
2023/01/22 11:03:53;;;;;;;43.27;31.33;;;;;;;2.23;75.74;96280.34;4980569;28;20585;-87
2023/01/22 11:06:25;;;;;;;23.70;17.40;;;;;;;2.22;75.44;96282.97;4980461;28;20231;-86
2023/01/22 11:08:59;;;;;;;18.17;13.93;;;;;;;2.23;75.66;96275.25;4985619;28;20196;-86
2023/01/22 11:11:31;;;;;;;14.50;11.27;;;;;;;2.25;75.32;96282.75;4964491;28;20232;-86
2023/01/22 11:14:04;;;;;;;14.77;12.00;;;;;;;2.25;74.55;96286.13;4983424;28;20239;-86
2023/01/22 11:16:35;;;;;;;13.30;10.63;;;;;;;2.28;74.24;96285.09;4964307;28;20818;-87
2023/01/22 11:19:07;;;;;;;14.13;11.47;;;;;;;2.30;74.22;96275.63;4963655;28;20203;-87
2023/01/22 11:21:41;;;;;;;13.07;10.77;;;;;;;2.26;74.56;96275.03;4969562;28;20207;-87
2023/01/22 11:24:14;;;;;;;12.80;10.50;;;;;;;2.36;74.79;96270.09;4964958;28;20251;-87
2023/01/22 11:26:58;;;;;;;13.80;11.20;;;;;;;2.43;74.11;96274.66;4961403;28;20307;-88
2023/01/22 11:29:52;;;;;;;14.27;10.83;;;;;;;2.35;72.99;96276.09;4972187;28;20223;-87
2023/01/22 11:32:36;;;;;;;11.03;9.50;;;;;;;2.38;73.34;96279.25;4958412;28;20215;-87
2023/01/22 11:35:16;;;;;;;13.73;10.53;;;;;;;2.49;73.14;96275.94;4957987;28;20224;-86
2023/01/22 11:37:57;;;;;;;12.83;10.10;;;;;;;2.54;72.96;96273.88;4957783;28;20209;-86
2023/01/22 11:40:27;;;;;;;9.37;7.90;;;;;;;2.37;72.45;96275.06;4960155;28;20521;-86
2023/01/22 11:43:09;;;;;;;10.13;8.17;;;;;;;2.43;72.56;96271.28;4960985;28;20260;-86
2023/01/22 11:46:05;;;;;;;7.73;6.80;;;;;;;2.41;71.83;96283.28;4961099;28;20299;-85